createdAt,value
2019-02-21T00:02:25.912Z,31.00
2019-02-21T00:04:57.347Z,31.07
2019-02-21T00:07:25.995Z,30.50
2019-02-21T00:09:55.611Z,28.73
2019-02-21T00:12:24.306Z,29.03
2019-02-21T00:14:53.339Z,30.80
2019-02-21T00:17:22.223Z,31.00
2019-02-21T00:19:50.883Z,30.13
2019-02-21T00:22:19.507Z,32.70
2019-02-21T00:24:48.145Z,31.50
2019-02-21T00:27:16.769Z,31.00
2019-02-21T00:29:45.448Z,31.60
2019-02-21T00:32:14.080Z,30.37
2019-02-21T00:34:42.832Z,29.90
2019-02-21T00:37:11.468Z,31.20
2019-02-21T00:39:40.107Z,31.20
2019-02-21T00:42:08.731Z,29.03
2019-02-21T00:44:37.363Z,29.30
2019-02-21T00:47:05.992Z,29.50
2019-02-21T00:49:34.700Z,30.03
2019-02-21T00:52:03.336Z,27.33
2019-02-21T00:54:31.946Z,28.70
2019-02-21T00:57:00.940Z,26.20
2019-02-21T00:59:29.583Z,29.60
2019-02-21T01:01:58.491Z,30.90
2019-02-21T01:04:27.416Z,29.70
2019-02-21T01:06:56.091Z,27.50
2019-02-21T01:09:24.731Z,29.10
2019-02-21T01:11:53.720Z,29.33
2019-02-21T01:14:22.368Z,29.27
2019-02-21T01:16:50.995Z,27.63
2019-02-21T01:19:20.052Z,28.47
2019-02-21T01:21:48.718Z,32.80
2019-02-21T01:24:17.349Z,27.77
2019-02-21T01:26:46.268Z,27.00
2019-02-21T01:29:15.259Z,27.47
2019-02-21T01:31:43.875Z,27.50
2019-02-21T01:34:12.819Z,27.80
2019-02-21T01:36:41.456Z,27.00
2019-02-21T01:39:10.100Z,27.97
2019-02-21T01:41:38.720Z,26.57
2019-02-21T01:44:07.358Z,26.43
2019-02-21T01:46:35.991Z,26.90
2019-02-21T01:49:04.727Z,27.83
2019-02-21T01:51:33.368Z,26.40
2019-02-21T01:54:02.007Z,26.10
2019-02-21T01:56:30.735Z,25.80
2019-02-21T01:58:59.402Z,27.20
2019-02-21T02:01:28.017Z,26.30
2019-02-21T02:03:56.652Z,28.07
2019-02-21T02:06:25.283Z,26.30
2019-02-21T02:08:54.019Z,26.50
2019-02-21T02:11:22.691Z,27.07
2019-02-21T02:13:51.331Z,27.00
2019-02-21T02:16:19.968Z,28.13
2019-02-21T02:18:48.607Z,26.90
2019-02-21T02:21:17.308Z,27.20
2019-02-21T02:23:46.230Z,26.53
2019-02-21T02:26:14.876Z,26.47
2019-02-21T02:28:43.507Z,25.90
2019-02-21T02:31:21.909Z,27.47
2019-02-21T02:33:42.663Z,27.33
2019-02-21T02:36:11.353Z,25.60
2019-02-21T02:38:40.410Z,26.70
2019-02-21T02:41:09.190Z,26.70
2019-02-21T02:43:37.979Z,26.77
2019-02-21T02:46:06.619Z,24.77
2019-02-21T02:48:35.509Z,25.60
2019-02-21T02:51:04.157Z,25.00
2019-02-21T02:53:32.783Z,25.67
2019-02-21T02:56:01.675Z,25.37
2019-02-21T02:58:30.577Z,24.10
2019-02-21T03:00:59.233Z,25.63
2019-02-21T03:03:27.873Z,23.57
2019-02-21T03:05:56.631Z,22.70
2019-02-21T03:08:25.263Z,22.90
2019-02-21T03:10:53.932Z,23.33
2019-02-21T03:13:22.618Z,23.20
2019-02-21T03:15:51.265Z,21.90
2019-02-21T03:18:19.924Z,22.30
2019-02-21T03:20:48.575Z,21.00
2019-02-21T03:23:17.263Z,22.13
2019-02-21T03:25:45.905Z,20.40
2019-02-21T03:28:14.556Z,20.30
2019-02-21T03:30:43.219Z,20.50
2019-02-21T03:33:11.879Z,20.70
2019-02-21T03:35:40.580Z,20.83
2019-02-21T03:38:09.229Z,18.83
2019-02-21T03:40:37.933Z,19.57
2019-02-21T03:43:06.580Z,19.73
2019-02-21T03:45:35.243Z,19.70
2019-02-21T03:48:03.880Z,18.77
2019-02-21T03:50:32.511Z,18.80
2019-02-21T03:53:01.160Z,18.70
2019-02-21T03:55:29.823Z,19.00
2019-02-21T03:57:58.484Z,19.07
2019-02-21T04:00:27.216Z,18.90
2019-02-21T04:02:55.882Z,19.40
2019-02-21T04:05:24.483Z,19.87
2019-02-21T04:07:53.130Z,18.13
2019-02-21T04:10:21.763Z,18.93
2019-02-21T04:12:50.469Z,20.17
2019-02-21T04:15:19.098Z,20.63
2019-02-21T04:17:47.904Z,19.40
2019-02-21T04:20:16.896Z,19.77
2019-02-21T04:22:45.802Z,19.50
2019-02-21T04:25:14.426Z,20.53
2019-02-21T04:27:43.355Z,19.23
2019-02-21T04:30:12.046Z,19.97
2019-02-21T04:32:40.699Z,20.13
2019-02-21T04:35:09.313Z,20.40
2019-02-21T04:37:37.936Z,19.10
2019-02-21T04:40:06.774Z,20.10
2019-02-21T04:42:35.663Z,20.07
2019-02-21T04:45:04.640Z,19.63
2019-02-21T04:47:33.272Z,19.10
2019-02-21T04:50:01.933Z,19.30
2019-02-21T04:52:30.570Z,20.90
2019-02-21T04:54:59.527Z,19.83
2019-02-21T04:57:28.295Z,19.67
2019-02-21T04:59:56.920Z,20.97
2019-02-21T05:02:28.911Z,18.47
2019-02-21T05:04:55.963Z,19.00
2019-02-21T05:07:24.719Z,19.40
2019-02-21T05:09:58.043Z,17.47
2019-02-21T05:12:24.479Z,18.33
2019-02-21T05:14:53.119Z,16.63
2019-02-21T05:17:22.136Z,18.00
2019-02-21T05:19:50.800Z,15.37
2019-02-21T05:22:19.496Z,17.67
2019-02-21T05:24:48.122Z,17.40
2019-02-21T05:27:23.335Z,17.07
2019-02-21T05:29:52.023Z,17.10
2019-02-21T05:32:27.874Z,16.93
2019-02-21T05:35:02.643Z,17.00
2019-02-21T05:37:40.312Z,17.13
2019-02-21T05:40:29.052Z,17.67
2019-02-21T05:43:32.013Z,16.83
2019-02-21T05:46:18.651Z,16.67
2019-02-21T05:49:02.060Z,17.77
2019-02-21T05:51:44.025Z,17.20
2019-02-21T05:54:17.684Z,17.60
2019-02-21T05:57:05.483Z,16.60
2019-02-21T05:59:52.111Z,17.00
2019-02-21T06:02:27.206Z,18.20
2019-02-21T06:05:01.905Z,17.57
2019-02-21T06:07:42.280Z,17.63
2019-02-21T06:10:33.987Z,17.00
2019-02-21T06:13:20.639Z,18.00
2019-02-21T06:16:00.239Z,16.07
2019-02-21T06:18:47.120Z,17.23
2019-02-21T06:21:33.605Z,16.93
2019-02-21T06:24:12.617Z,16.40
2019-02-21T06:26:49.262Z,16.20
2019-02-21T06:29:24.839Z,16.83
2019-02-21T06:31:53.441Z,16.23
2019-02-21T06:34:22.085Z,16.23
2019-02-21T06:36:50.713Z,15.00
2019-02-21T06:39:19.735Z,15.80
2019-02-21T06:41:58.797Z,15.80
2019-02-21T06:44:18.807Z,15.87
2019-02-21T06:46:47.412Z,14.50
2019-02-21T06:49:16.088Z,15.50
2019-02-21T06:51:44.783Z,15.57
2019-02-21T06:54:13.444Z,14.43
2019-02-21T06:56:42.124Z,14.03
2019-02-21T06:59:10.766Z,14.70
2019-02-21T07:01:39.403Z,14.53
2019-02-21T07:04:08.035Z,14.13
2019-02-21T07:06:39.082Z,14.97
2019-02-21T07:09:07.072Z,14.90
2019-02-21T07:11:35.699Z,13.70
2019-02-21T07:14:04.626Z,13.30
2019-02-21T07:16:33.232Z,13.70
2019-02-21T07:19:01.939Z,12.80
2019-02-21T07:21:30.555Z,12.60
2019-02-21T07:23:59.452Z,13.90
2019-02-21T07:26:28.099Z,12.63
2019-02-21T07:28:58.381Z,13.60
2019-02-21T07:31:29.061Z,14.70
2019-02-21T07:33:57.513Z,15.27
2019-02-21T07:36:26.148Z,16.47
2019-02-21T07:39:08.394Z,16.77
2019-02-21T07:41:25.121Z,17.40
2019-02-21T07:43:53.751Z,17.10
2019-02-21T07:46:22.376Z,17.97
2019-02-21T07:48:51.070Z,18.30
2019-02-21T07:51:19.702Z,18.00
2019-02-21T07:53:48.620Z,18.70
2019-02-21T07:56:17.232Z,18.97
2019-02-21T07:58:45.915Z,19.40
2019-02-21T08:01:17.213Z,18.90
2019-02-21T08:03:48.162Z,17.70
2019-02-21T08:06:15.297Z,19.40
2019-02-21T08:08:45.076Z,18.57
2019-02-21T08:11:13.824Z,15.70
2019-02-21T08:13:42.481Z,17.50
2019-02-21T08:16:12.502Z,17.40
2019-02-21T08:18:41.422Z,17.50
2019-02-21T08:21:10.055Z,16.93
2019-02-21T08:23:49.712Z,18.17
2019-02-21T08:26:09.317Z,17.90
2019-02-21T08:28:38.295Z,17.30
2019-02-21T08:31:06.948Z,18.10
2019-02-21T08:33:57.647Z,17.10
2019-02-21T08:36:16.484Z,18.20
2019-02-21T08:38:45.127Z,15.53
2019-02-21T08:41:14.566Z,14.63
2019-02-21T08:43:43.543Z,14.40
2019-02-21T08:46:12.192Z,14.80
2019-02-21T08:48:41.067Z,14.20
2019-02-21T08:51:09.797Z,15.60
2019-02-21T08:53:38.657Z,15.07
2019-02-21T08:56:07.697Z,16.00
2019-02-21T08:58:36.676Z,14.90
2019-02-21T09:01:05.876Z,16.20
2019-02-21T09:03:34.775Z,16.70
2019-02-21T09:06:03.418Z,15.10
2019-02-21T09:08:34.167Z,15.00
2019-02-21T09:11:04.116Z,15.10
2019-02-21T09:13:32.971Z,15.37
2019-02-21T09:16:01.620Z,15.47
2019-02-21T09:18:30.259Z,16.40
2019-02-21T09:20:58.903Z,15.47
2019-02-21T09:23:27.531Z,15.70
2019-02-21T09:25:56.173Z,15.10
2019-02-21T09:28:24.819Z,15.50
2019-02-21T09:30:54.350Z,16.83
2019-02-21T09:33:22.978Z,16.10
2019-02-21T09:35:51.639Z,16.50
2019-02-21T09:38:20.707Z,16.67
2019-02-21T09:40:49.408Z,16.00
2019-02-21T09:43:18.035Z,16.47
2019-02-21T09:45:46.699Z,15.97
2019-02-21T09:48:15.337Z,16.67
2019-02-21T09:50:44.092Z,17.40
2019-02-21T09:53:12.707Z,17.20
2019-02-21T09:55:41.343Z,16.53
2019-02-21T09:58:09.961Z,17.00
2019-02-21T10:00:38.610Z,16.97
2019-02-21T10:03:07.196Z,17.07
2019-02-21T10:05:35.836Z,17.07
2019-02-21T10:08:04.543Z,17.53
2019-02-21T10:10:33.269Z,18.20
2019-02-21T10:13:01.887Z,19.23
2019-02-21T10:15:31.499Z,18.77
2019-02-21T10:18:00.259Z,19.77
2019-02-21T10:20:28.898Z,19.23
2019-02-21T10:22:57.646Z,19.20
2019-02-21T10:25:26.739Z,18.17
2019-02-21T10:27:55.364Z,18.93
2019-02-21T10:30:24.105Z,19.73
2019-02-21T10:32:52.807Z,17.73
2019-02-21T10:35:21.441Z,19.20
2019-02-21T10:37:50.142Z,20.20
2019-02-21T10:40:18.855Z,18.93
2019-02-21T10:42:47.834Z,19.17
2019-02-21T10:45:17.503Z,19.73
2019-02-21T10:47:46.131Z,19.07
2019-02-21T10:50:19.047Z,20.83
2019-02-21T10:52:47.695Z,19.27
2019-02-21T10:55:17.357Z,21.80
2019-02-21T10:57:46.508Z,20.33
2019-02-21T11:00:20.438Z,19.77
2019-02-21T11:02:49.083Z,19.80
2019-02-21T11:05:17.705Z,19.70
2019-02-21T11:07:46.365Z,19.50
2019-02-21T11:10:19.146Z,21.00
2019-02-21T11:12:47.569Z,20.40
2019-02-21T11:15:16.744Z,18.87
2019-02-21T11:17:45.381Z,20.13
2019-02-21T11:20:15.598Z,21.03
2019-02-21T11:22:44.231Z,21.50
2019-02-21T11:25:12.977Z,20.50
2019-02-21T11:27:41.632Z,19.33
2019-02-21T11:30:13.216Z,19.60
2019-02-21T11:32:41.901Z,19.47
2019-02-21T11:35:10.844Z,20.10
2019-02-21T11:37:44.262Z,18.53
2019-02-21T11:40:11.287Z,16.53
2019-02-21T11:42:40.049Z,18.33
2019-02-21T11:45:10.443Z,19.10
2019-02-21T11:47:39.079Z,19.60
2019-02-21T11:50:08.435Z,18.50
2019-02-21T11:52:37.065Z,17.17
2019-02-21T11:55:06.279Z,18.63
2019-02-21T11:57:34.937Z,17.93
2019-02-21T12:00:04.045Z,15.77
2019-02-21T12:02:38.910Z,17.60
2019-02-21T12:05:03.075Z,18.03
2019-02-21T12:07:31.714Z,17.90
2019-02-21T12:10:00.335Z,16.53
2019-02-21T12:12:28.976Z,17.20
2019-02-21T12:14:57.603Z,17.23
2019-02-21T12:17:26.274Z,15.03
2019-02-21T12:19:54.884Z,16.20
2019-02-21T12:22:23.517Z,16.27
2019-02-21T12:24:52.139Z,16.30
2019-02-21T12:27:20.794Z,16.20
2019-02-21T12:29:49.417Z,16.33
2019-02-21T12:32:18.185Z,16.40
2019-02-21T12:34:46.792Z,16.83
2019-02-21T12:37:15.471Z,15.80
2019-02-21T12:39:44.095Z,16.30
2019-02-21T12:42:12.739Z,15.30
2019-02-21T12:44:41.372Z,16.00
2019-02-21T12:47:10.008Z,14.93
2019-02-21T12:49:38.627Z,16.20
2019-02-21T12:52:07.269Z,16.27
2019-02-21T12:54:35.906Z,16.80
2019-02-21T12:57:04.547Z,15.60
2019-02-21T12:59:33.376Z,15.90
2019-02-21T13:02:02.020Z,16.00
2019-02-21T13:04:33.261Z,13.80
2019-02-21T13:07:01.083Z,17.20
2019-02-21T13:09:29.774Z,17.00
2019-02-21T13:11:58.438Z,17.47
2019-02-21T13:14:27.041Z,16.53
2019-02-21T13:16:56.024Z,17.77
2019-02-21T13:19:24.671Z,17.00
2019-02-21T13:21:53.308Z,16.87
2019-02-21T13:24:21.969Z,18.47
2019-02-21T13:26:50.575Z,17.93
2019-02-21T13:29:19.206Z,18.80
2019-02-21T13:31:48.666Z,20.40
2019-02-21T13:34:17.407Z,20.13
2019-02-21T13:36:46.031Z,19.63
2019-02-21T13:39:14.671Z,19.50
2019-02-21T13:41:43.284Z,20.63
2019-02-21T13:44:11.942Z,20.33
2019-02-21T13:46:41.574Z,20.40
2019-02-21T13:49:10.551Z,20.77
2019-02-21T13:51:39.533Z,21.70
2019-02-21T13:54:08.455Z,21.47
2019-02-21T13:56:37.179Z,19.70
2019-02-21T13:59:05.823Z,21.40
2019-02-21T14:01:34.448Z,22.60
2019-02-21T14:04:03.149Z,20.40
2019-02-21T14:06:31.780Z,21.63
2019-02-21T14:09:00.495Z,20.37
2019-02-21T14:11:30.811Z,22.07
2019-02-21T14:13:59.659Z,22.47
2019-02-21T14:16:28.273Z,21.30
2019-02-21T14:18:56.928Z,21.63
2019-02-21T14:21:25.629Z,22.00
2019-02-21T14:23:54.276Z,21.97
2019-02-21T14:26:23.136Z,23.00
2019-02-21T14:28:51.758Z,21.40
2019-02-21T14:31:20.371Z,23.83
2019-02-21T14:33:51.663Z,23.67
2019-02-21T14:36:19.681Z,23.73
2019-02-21T14:38:48.339Z,22.83
2019-02-21T14:41:17.499Z,22.57
2019-02-21T14:43:46.153Z,24.10
2019-02-21T14:46:14.833Z,23.37
2019-02-21T14:48:43.468Z,24.30
2019-02-21T14:51:12.099Z,24.37
2019-02-21T14:53:40.971Z,22.73
2019-02-21T14:56:09.597Z,23.77
2019-02-21T14:58:38.235Z,22.80
2019-02-21T15:01:06.947Z,23.70
2019-02-21T15:03:35.919Z,24.03
2019-02-21T15:06:04.584Z,23.70
2019-02-21T15:08:33.603Z,23.70
2019-02-21T15:11:02.247Z,24.53
2019-02-21T15:13:30.891Z,24.20
2019-02-21T15:15:59.532Z,25.07
2019-02-21T15:18:28.163Z,24.30
2019-02-21T15:20:56.824Z,24.47
2019-02-21T15:23:25.823Z,23.70
2019-02-21T15:25:54.539Z,24.13
2019-02-21T15:28:23.191Z,24.37
2019-02-21T15:30:51.815Z,22.73
2019-02-21T15:33:20.481Z,23.20
2019-02-21T15:35:49.079Z,23.17
2019-02-21T15:38:20.143Z,22.17
2019-02-21T15:40:48.075Z,22.63
2019-02-21T15:43:16.686Z,22.43
2019-02-21T15:45:45.319Z,22.10
2019-02-21T15:48:13.941Z,22.50
2019-02-21T15:50:43.150Z,22.77
2019-02-21T15:53:11.803Z,22.20
2019-02-21T15:55:40.447Z,22.40
2019-02-21T15:58:09.073Z,22.53
2019-02-21T16:00:37.724Z,23.50
2019-02-21T16:03:06.408Z,23.57
2019-02-21T16:05:35.046Z,23.80
2019-02-21T16:08:03.674Z,23.63
2019-02-21T16:10:32.479Z,22.93
2019-02-21T16:13:04.282Z,23.00
2019-02-21T16:15:31.732Z,25.83
2019-02-21T16:18:00.643Z,24.73
2019-02-21T16:20:29.398Z,26.20
2019-02-21T16:22:58.143Z,26.20
2019-02-21T16:25:26.869Z,25.50
2019-02-21T16:27:55.862Z,25.80
2019-02-21T16:30:24.610Z,28.20
2019-02-21T16:32:53.227Z,28.43
2019-02-21T16:35:21.958Z,27.20
2019-02-21T16:37:50.677Z,26.83
2019-02-21T16:40:19.470Z,28.20
2019-02-21T16:42:48.116Z,29.30
2019-02-21T16:45:16.768Z,30.00
2019-02-21T16:47:45.382Z,30.00
2019-02-21T16:50:14.312Z,29.27
2019-02-21T16:52:43.026Z,30.60
2019-02-21T16:55:14.128Z,31.03
2019-02-21T16:57:42.751Z,30.30
2019-02-21T17:00:12.702Z,31.60
2019-02-21T17:02:41.311Z,31.30
2019-02-21T17:05:10.326Z,31.17
2019-02-21T17:07:38.911Z,30.23
2019-02-21T17:10:08.256Z,31.67
2019-02-21T17:12:37.221Z,30.77
2019-02-21T17:15:06.460Z,30.43
2019-02-21T17:17:35.093Z,33.33
2019-02-21T17:20:04.159Z,31.83
2019-02-21T17:22:33.096Z,31.10
2019-02-21T17:25:01.787Z,33.20
2019-02-21T17:27:30.408Z,32.93
2019-02-21T17:29:59.341Z,33.80
2019-02-21T17:32:28.042Z,35.43
2019-02-21T17:34:56.720Z,34.33
2019-02-21T17:37:25.508Z,34.10
2019-02-21T17:39:54.430Z,33.20
2019-02-21T17:42:23.097Z,33.23
2019-02-21T17:44:51.779Z,32.60
2019-02-21T17:47:20.404Z,35.50
2019-02-21T17:49:49.108Z,36.13
2019-02-21T17:52:17.711Z,36.67
2019-02-21T17:54:46.369Z,36.67
2019-02-21T17:57:15.263Z,36.07
2019-02-21T17:59:43.963Z,37.40
2019-02-21T18:02:12.573Z,37.20
2019-02-21T18:04:41.232Z,39.73
2019-02-21T18:07:09.852Z,37.80
2019-02-21T18:09:38.498Z,36.53
2019-02-21T18:12:07.132Z,37.97
2019-02-21T18:14:35.755Z,38.70
2019-02-21T18:17:04.412Z,38.60
2019-02-21T18:19:33.067Z,37.77
2019-02-21T18:22:01.707Z,39.00
2019-02-21T18:24:30.327Z,36.90
2019-02-21T18:26:59.012Z,38.20
2019-02-21T18:29:27.656Z,36.30
2019-02-21T18:31:56.322Z,37.47
2019-02-21T18:34:25.244Z,38.37
2019-02-21T18:36:53.896Z,36.47
2019-02-21T18:39:22.519Z,38.63
2019-02-21T18:41:51.190Z,38.50
2019-02-21T18:44:19.832Z,39.33
2019-02-21T18:46:48.491Z,40.17
2019-02-21T18:49:17.171Z,40.13
2019-02-21T18:51:45.860Z,41.37
2019-02-21T18:54:14.488Z,41.67
2019-02-21T18:56:43.131Z,40.10
2019-02-21T18:59:11.991Z,42.10
2019-02-21T19:01:40.604Z,42.60
2019-02-21T19:04:09.209Z,40.93
2019-02-21T19:06:38.159Z,41.63
2019-02-21T19:09:08.050Z,42.23
2019-02-21T19:11:36.772Z,41.10
2019-02-21T19:14:05.387Z,42.60
2019-02-21T19:16:34.022Z,42.37
2019-02-21T19:19:02.681Z,41.33
2019-02-21T19:21:31.360Z,44.50
2019-02-21T19:24:00.069Z,45.00
2019-02-21T19:26:28.740Z,44.13
2019-02-21T19:28:57.679Z,44.60
2019-02-21T19:31:26.811Z,46.00
2019-02-21T19:33:55.455Z,45.57
2019-02-21T19:36:24.175Z,45.40
2019-02-21T19:38:52.900Z,46.33
2019-02-21T19:41:21.553Z,44.83
2019-02-21T19:43:50.229Z,47.40
2019-02-21T19:46:18.952Z,46.67
2019-02-21T19:48:47.616Z,46.57
2019-02-21T19:51:16.308Z,47.50
2019-02-21T19:53:45.137Z,46.77
2019-02-21T19:56:13.825Z,49.13
2019-02-21T19:58:42.720Z,48.10
2019-02-21T20:01:11.438Z,45.13
2019-02-21T20:03:40.105Z,47.30
2019-02-21T20:06:09.091Z,48.10
2019-02-21T20:08:37.726Z,47.37
2019-02-21T20:11:06.770Z,46.43
2019-02-21T20:13:35.759Z,44.63
2019-02-21T20:16:04.501Z,47.37
2019-02-21T20:18:33.495Z,46.70
2019-02-21T20:21:02.263Z,46.10
2019-02-21T20:23:30.921Z,46.73
2019-02-21T20:25:59.786Z,46.33
2019-02-21T20:28:28.734Z,49.30
2019-02-21T20:30:57.455Z,46.10
2019-02-21T20:33:26.445Z,47.47
2019-02-21T20:35:55.159Z,45.87
2019-02-21T20:38:31.874Z,43.40
2019-02-21T20:40:54.317Z,43.70
2019-02-21T20:43:23.172Z,45.40
2019-02-21T20:45:53.380Z,43.20
2019-02-21T20:48:22.246Z,44.90
2019-02-21T20:50:56.883Z,43.43
2019-02-21T20:53:22.450Z,44.20
2019-02-21T20:55:51.079Z,42.90
2019-02-21T20:58:19.939Z,41.80
2019-02-21T21:00:48.803Z,42.43
2019-02-21T21:03:17.551Z,43.97
2019-02-21T21:05:47.502Z,41.03
2019-02-21T21:08:16.214Z,40.87
2019-02-21T21:10:44.868Z,41.17
2019-02-21T21:13:13.560Z,40.07
2019-02-21T21:15:42.280Z,39.60
2019-02-21T21:18:11.126Z,39.73
2019-02-21T21:20:39.923Z,39.70
2019-02-21T21:23:08.612Z,40.53
2019-02-21T21:25:37.659Z,39.97
2019-02-21T21:28:06.461Z,39.77
2019-02-21T21:30:35.135Z,38.80
2019-02-21T21:33:03.942Z,39.47
2019-02-21T21:35:32.644Z,40.37
2019-02-21T21:38:01.314Z,39.87
2019-02-21T21:40:30.097Z,39.20
2019-02-21T21:42:58.785Z,38.57
2019-02-21T21:45:27.829Z,39.80
2019-02-21T21:47:57.464Z,39.20
2019-02-21T21:50:26.239Z,40.23
2019-02-21T21:52:55.205Z,40.50
2019-02-21T21:55:23.879Z,39.60
2019-02-21T21:57:52.527Z,36.87
2019-02-21T22:00:23.022Z,38.40
2019-02-21T22:02:51.919Z,38.87
2019-02-21T22:05:20.674Z,38.27
2019-02-21T22:07:49.723Z,36.90
2019-02-21T22:10:18.928Z,39.17
2019-02-21T22:12:47.767Z,38.60
2019-02-21T22:15:16.819Z,39.20
2019-02-21T22:17:45.465Z,37.60
2019-02-21T22:20:14.239Z,37.20
2019-02-21T22:22:43.117Z,36.47
2019-02-21T22:25:12.063Z,37.70
2019-02-21T22:27:40.771Z,34.13
2019-02-21T22:30:11.663Z,37.90
2019-02-21T22:32:40.312Z,36.77
2019-02-21T22:35:08.975Z,37.17
2019-02-21T22:37:38.056Z,36.83
2019-02-21T22:40:08.500Z,38.57
2019-02-21T22:42:37.196Z,37.70
2019-02-21T22:45:06.367Z,35.83
2019-02-21T22:47:35.125Z,37.10
2019-02-21T22:50:03.879Z,36.83
2019-02-21T22:52:32.820Z,36.90
2019-02-21T22:55:09.345Z,37.10
2019-02-21T22:57:31.861Z,36.97
2019-02-21T23:00:00.502Z,37.47
2019-02-21T23:02:30.523Z,37.50
2019-02-21T23:05:26.180Z,36.17
2019-02-21T23:08:43.259Z,36.33
2019-02-21T23:11:12.261Z,35.77
2019-02-21T23:13:41.140Z,35.27
2019-02-21T23:16:09.890Z,35.43
2019-02-21T23:18:38.879Z,35.60
2019-02-21T23:21:07.532Z,35.17
2019-02-21T23:23:37.192Z,35.70
2019-02-21T23:26:05.899Z,33.90
2019-02-21T23:28:34.564Z,31.90
2019-02-21T23:31:03.312Z,32.40
2019-02-21T23:33:33.864Z,31.33
2019-02-21T23:36:02.755Z,31.03
2019-02-21T23:38:31.376Z,32.70
2019-02-21T23:41:00.019Z,31.97
2019-02-21T23:43:28.679Z,31.20
2019-02-21T23:45:57.879Z,30.43
2019-02-21T23:48:26.516Z,30.23
2019-02-21T23:50:55.140Z,31.20
2019-02-21T23:53:23.813Z,30.20
2019-02-21T23:55:52.820Z,30.70
2019-02-21T23:58:21.445Z,31.90
